createdAt,value
2022-10-15T00:01:48.180Z,18.65
2022-10-15T00:03:50.065Z,18.65
2022-10-15T00:05:51.658Z,18.66
2022-10-15T00:07:54.062Z,18.66
2022-10-15T00:09:55.544Z,18.65
2022-10-15T00:11:57.502Z,18.65
2022-10-15T00:14:00.411Z,18.64
2022-10-15T00:16:02.166Z,18.63
2022-10-15T00:18:03.920Z,18.65
2022-10-15T00:20:12.395Z,18.65
2022-10-15T00:22:14.044Z,18.63
2022-10-15T00:24:15.897Z,18.64
2022-10-15T00:26:26.123Z,18.61
2022-10-15T00:28:31.859Z,18.62
2022-10-15T00:30:35.878Z,18.62
2022-10-15T00:32:37.559Z,18.62
2022-10-15T00:34:41.588Z,18.63
2022-10-15T00:36:43.072Z,18.62
2022-10-15T00:38:44.842Z,18.60
2022-10-15T00:40:46.499Z,18.62
2022-10-15T00:42:48.057Z,18.61
2022-10-15T00:44:55.471Z,18.60
2022-10-15T00:47:04.346Z,18.60
2022-10-15T00:49:18.805Z,18.58
2022-10-15T00:51:21.198Z,18.60
2022-10-15T00:53:23.310Z,18.58
2022-10-15T00:55:27.100Z,18.58
2022-10-15T00:57:31.426Z,18.57
2022-10-15T00:59:39.017Z,18.57
2022-10-15T01:01:40.858Z,18.57
2022-10-15T01:03:43.028Z,18.56
2022-10-15T01:05:49.083Z,18.57
2022-10-15T01:07:50.639Z,18.58
2022-10-15T01:09:52.245Z,18.56
2022-10-15T01:11:55.933Z,18.56
2022-10-15T01:14:45.363Z,18.51
2022-10-15T01:17:13.602Z,18.53
2022-10-15T01:19:31.630Z,18.50
2022-10-15T01:21:51.225Z,18.50
2022-10-15T01:24:38.137Z,18.50
2022-10-15T01:27:09.645Z,18.50
2022-10-15T01:29:34.007Z,18.50
2022-10-15T01:31:49.485Z,18.49
2022-10-15T01:34:02.500Z,18.50
2022-10-15T01:36:06.412Z,18.51
2022-10-15T01:38:33.301Z,18.51
2022-10-15T01:40:50.384Z,18.49
2022-10-15T01:42:58.046Z,18.51
2022-10-15T01:45:18.642Z,18.50
2022-10-15T01:47:46.796Z,18.48
2022-10-15T01:49:52.760Z,18.51
2022-10-15T01:51:57.236Z,18.50
2022-10-15T01:54:00.109Z,18.51
2022-10-15T01:56:12.754Z,18.52
2022-10-15T01:58:17.746Z,18.51
2022-10-15T02:00:19.502Z,18.48
2022-10-15T02:02:21.273Z,18.50
2022-10-15T02:04:31.138Z,18.50
2022-10-15T02:06:39.682Z,18.48
2022-10-15T02:09:10.644Z,18.49
2022-10-15T02:11:15.932Z,18.50
2022-10-15T02:13:40.007Z,18.48
2022-10-15T02:16:02.384Z,18.48
2022-10-15T02:18:20.040Z,18.48
2022-10-15T02:20:28.877Z,18.47
2022-10-15T02:22:42.007Z,18.46
2022-10-15T02:24:58.386Z,18.47
2022-10-15T02:27:03.204Z,18.49
2022-10-15T02:29:10.365Z,18.48
2022-10-15T02:31:16.270Z,18.49
2022-10-15T02:33:18.529Z,18.49
2022-10-15T02:35:23.869Z,18.49
2022-10-15T02:37:27.885Z,18.49
2022-10-15T02:39:29.729Z,18.49
2022-10-15T02:41:35.911Z,18.49
2022-10-15T02:43:38.307Z,18.49
2022-10-15T02:45:40.004Z,18.49
2022-10-15T02:47:41.523Z,18.49
2022-10-15T02:49:43.437Z,18.48
2022-10-15T02:51:44.983Z,18.48
2022-10-15T02:53:50.842Z,18.47
2022-10-15T02:55:53.863Z,18.47
2022-10-15T02:57:55.519Z,18.48
2022-10-15T02:59:57.415Z,18.48
2022-10-15T03:01:58.944Z,18.48
2022-10-15T03:04:02.051Z,18.47
2022-10-15T03:06:06.168Z,18.47
2022-10-15T03:08:07.613Z,18.48
2022-10-15T03:10:09.911Z,18.47
2022-10-15T03:12:11.507Z,18.48
2022-10-15T03:14:13.174Z,18.48
2022-10-15T03:16:15.661Z,18.49
2022-10-15T03:18:20.182Z,18.48
2022-10-15T03:20:22.234Z,18.48
2022-10-15T03:22:24.111Z,18.47
2022-10-15T03:24:28.214Z,18.48
2022-10-15T03:26:30.002Z,18.49
2022-10-15T03:28:31.672Z,18.47
2022-10-15T03:30:33.464Z,18.46
2022-10-15T03:32:36.342Z,18.47
2022-10-15T03:34:39.733Z,18.47
2022-10-15T03:36:42.329Z,18.47
2022-10-15T03:38:45.827Z,18.49
2022-10-15T03:40:48.841Z,18.49
2022-10-15T03:42:56.467Z,18.48
2022-10-15T03:44:59.162Z,18.48
2022-10-15T03:47:00.886Z,18.49
2022-10-15T03:49:12.605Z,18.50
2022-10-15T03:51:17.042Z,18.50
2022-10-15T03:53:24.677Z,18.51
2022-10-15T03:55:26.313Z,18.51
2022-10-15T03:57:28.035Z,18.51
2022-10-15T03:59:35.762Z,18.50
2022-10-15T04:01:38.718Z,18.52
2022-10-15T04:03:40.984Z,18.52
2022-10-15T04:05:53.798Z,18.52
2022-10-15T04:07:58.611Z,18.51
2022-10-15T04:10:02.078Z,18.51
2022-10-15T04:12:12.623Z,18.50
2022-10-15T04:14:14.527Z,18.52
2022-10-15T04:16:17.909Z,18.52
2022-10-15T04:18:21.814Z,18.53
2022-10-15T04:20:27.421Z,18.52
2022-10-15T04:22:37.329Z,18.53
2022-10-15T04:24:39.836Z,18.52
2022-10-15T04:26:42.038Z,18.54
2022-10-15T04:28:49.697Z,18.54
2022-10-15T04:30:59.748Z,18.54
2022-10-15T04:33:01.662Z,18.54
2022-10-15T04:35:03.458Z,18.55
2022-10-15T04:37:23.791Z,18.54
2022-10-15T04:39:25.617Z,18.52
2022-10-15T04:41:27.067Z,18.54
2022-10-15T04:43:34.874Z,18.53
2022-10-15T04:45:40.650Z,18.53
2022-10-15T04:47:42.355Z,18.54
2022-10-15T04:49:47.341Z,18.55
2022-10-15T04:52:02.843Z,18.54
2022-10-15T04:54:23.073Z,18.54
2022-10-15T04:56:37.456Z,18.55
2022-10-15T04:58:39.404Z,18.55
2022-10-15T05:00:41.303Z,18.55
2022-10-15T05:02:43.360Z,18.55
2022-10-15T05:04:58.385Z,18.55
2022-10-15T05:06:59.883Z,18.55
2022-10-15T05:09:02.071Z,18.55
2022-10-15T05:11:17.846Z,18.55
2022-10-15T05:13:19.437Z,18.55
2022-10-15T05:15:21.127Z,18.56
2022-10-15T05:17:22.986Z,18.56
2022-10-15T05:19:24.860Z,18.57
2022-10-15T05:21:27.051Z,18.56
2022-10-15T05:23:32.063Z,18.55
2022-10-15T05:25:49.300Z,18.57
2022-10-15T05:27:56.780Z,18.58
2022-10-15T05:29:58.774Z,18.59
2022-10-15T05:32:08.986Z,18.58
2022-10-15T05:34:12.502Z,18.59
2022-10-15T05:36:28.845Z,18.58
2022-10-15T05:38:30.435Z,18.59
2022-10-15T05:40:32.141Z,18.60
2022-10-15T05:42:42.077Z,18.59
2022-10-15T05:44:44.085Z,18.59
2022-10-15T05:46:45.568Z,18.60
2022-10-15T05:48:55.984Z,18.59
2022-10-15T05:51:05.791Z,18.60
2022-10-15T05:53:07.513Z,18.62
2022-10-15T05:55:30.298Z,18.61
2022-10-15T05:57:31.747Z,18.60
2022-10-15T05:59:35.570Z,18.61
2022-10-15T06:01:37.968Z,18.61
2022-10-15T06:03:40.927Z,18.61
2022-10-15T06:05:42.503Z,18.61
2022-10-15T06:07:44.011Z,18.63
2022-10-15T06:09:45.532Z,18.63
2022-10-15T06:11:47.125Z,18.62
2022-10-15T06:13:53.367Z,18.64
2022-10-15T06:15:55.115Z,18.63
2022-10-15T06:17:56.652Z,18.65
2022-10-15T06:19:58.317Z,18.64
2022-10-15T06:22:00.012Z,18.65
2022-10-15T06:24:03.139Z,18.65
2022-10-15T06:26:09.449Z,18.66
2022-10-15T06:28:11.275Z,18.66
2022-10-15T06:30:19.467Z,18.68
2022-10-15T06:32:21.045Z,18.68
2022-10-15T06:34:22.721Z,18.67
2022-10-15T06:36:25.612Z,18.66
2022-10-15T06:38:27.198Z,18.66
2022-10-15T06:40:29.087Z,18.68
2022-10-15T06:42:30.590Z,18.69
2022-10-15T06:44:32.163Z,18.70
2022-10-15T06:46:33.780Z,18.71
2022-10-15T06:48:35.347Z,18.74
2022-10-15T06:50:38.338Z,18.75
2022-10-15T06:52:39.881Z,18.77
2022-10-15T06:54:41.480Z,18.78
2022-10-15T06:56:45.644Z,18.78
2022-10-15T06:58:47.294Z,18.80
2022-10-15T07:00:48.832Z,18.79
2022-10-15T07:02:51.428Z,18.80
2022-10-15T07:04:53.095Z,18.81
2022-10-15T07:06:55.175Z,18.84
2022-10-15T07:08:58.316Z,18.84
2022-10-15T07:11:05.222Z,18.85
2022-10-15T07:13:06.677Z,18.87
2022-10-15T07:15:08.603Z,18.89
2022-10-15T07:17:10.160Z,18.90
2022-10-15T07:19:11.721Z,18.90
2022-10-15T07:21:13.649Z,18.91
2022-10-15T07:23:15.331Z,18.92
2022-10-15T07:25:17.577Z,18.92
2022-10-15T07:27:20.698Z,18.95
2022-10-15T07:29:22.322Z,18.96
2022-10-15T07:31:24.182Z,18.97
2022-10-15T07:33:25.709Z,18.99
2022-10-15T07:35:34.241Z,19.00
2022-10-15T07:37:35.777Z,19.02
2022-10-15T07:39:40.674Z,19.07
2022-10-15T07:41:43.349Z,19.08
2022-10-15T07:43:44.979Z,19.09
2022-10-15T07:45:50.101Z,19.11
2022-10-15T07:47:52.046Z,19.13
2022-10-15T07:49:53.483Z,19.13
2022-10-15T07:51:55.015Z,19.15
2022-10-15T07:53:59.444Z,19.18
2022-10-15T07:56:03.061Z,19.20
2022-10-15T07:58:08.450Z,19.21
2022-10-15T08:00:10.458Z,19.25
2022-10-15T08:02:16.663Z,19.26
2022-10-15T08:04:20.333Z,19.28
2022-10-15T08:06:24.077Z,19.29
2022-10-15T08:08:25.609Z,19.33
2022-10-15T08:10:27.876Z,19.34
2022-10-15T08:12:29.467Z,19.37
2022-10-15T08:14:31.173Z,19.40
2022-10-15T08:16:32.761Z,19.42
2022-10-15T08:18:34.738Z,19.46
2022-10-15T08:20:37.848Z,19.48
2022-10-15T08:22:39.968Z,19.49
2022-10-15T08:24:42.410Z,19.51
2022-10-15T08:26:44.098Z,19.55
2022-10-15T08:28:45.864Z,19.55
2022-10-15T08:30:47.492Z,19.59
2022-10-15T08:32:49.135Z,19.60
2022-10-15T08:34:50.745Z,19.63
2022-10-15T08:36:52.659Z,19.64
2022-10-15T08:38:54.505Z,19.67
2022-10-15T08:40:59.738Z,19.69
2022-10-15T08:43:02.464Z,19.71
2022-10-15T08:45:19.715Z,19.73
2022-10-15T08:47:34.258Z,19.75
2022-10-15T08:49:43.777Z,19.76
2022-10-15T08:51:52.662Z,19.78
2022-10-15T08:54:03.507Z,19.78
2022-10-15T08:56:15.070Z,19.80
2022-10-15T08:58:25.471Z,19.82
2022-10-15T09:00:46.442Z,19.83
2022-10-15T09:03:11.719Z,19.85
2022-10-15T09:05:45.800Z,19.88
2022-10-15T09:07:58.666Z,19.89
2022-10-15T09:10:29.092Z,19.93
2022-10-15T09:12:47.786Z,19.95
2022-10-15T09:14:50.374Z,19.99
2022-10-15T09:16:52.027Z,20.02
2022-10-15T09:18:54.517Z,20.07
2022-10-15T09:20:58.157Z,20.08
2022-10-15T09:23:00.011Z,20.12
2022-10-15T09:25:15.022Z,20.15
2022-10-15T09:27:32.858Z,20.19
2022-10-15T09:29:47.929Z,20.24
2022-10-15T09:32:08.607Z,20.29
2022-10-15T09:34:36.137Z,20.35
2022-10-15T09:36:46.388Z,20.39
2022-10-15T09:39:29.129Z,20.40
2022-10-15T09:41:54.829Z,20.44
2022-10-15T09:43:59.201Z,20.47
2022-10-15T09:46:05.172Z,20.49
2022-10-15T09:48:18.662Z,20.52
2022-10-15T09:50:20.169Z,20.54
2022-10-15T09:52:40.554Z,20.56
2022-10-15T09:54:48.477Z,20.58
2022-10-15T09:56:54.169Z,20.60
2022-10-15T09:58:58.121Z,20.62
2022-10-15T10:01:07.880Z,20.64
2022-10-15T10:03:15.338Z,20.68
2022-10-15T10:05:20.252Z,20.71
2022-10-15T10:07:30.504Z,20.77
2022-10-15T10:09:36.257Z,20.82
2022-10-15T10:11:51.545Z,20.87
2022-10-15T10:14:00.756Z,20.94
2022-10-15T10:16:05.991Z,21.00
2022-10-15T10:18:18.830Z,21.07
2022-10-15T10:20:22.879Z,21.15
2022-10-15T10:22:24.574Z,21.22
2022-10-15T10:24:32.069Z,21.31
2022-10-15T10:26:36.100Z,21.38
2022-10-15T10:28:46.485Z,21.46
2022-10-15T10:31:03.719Z,21.53
2022-10-15T10:33:05.978Z,21.63
2022-10-15T10:35:21.094Z,21.72
2022-10-15T10:37:23.453Z,21.82
2022-10-15T10:39:28.461Z,21.92
2022-10-15T10:41:59.310Z,22.06
2022-10-15T10:44:00.934Z,22.22
2022-10-15T10:46:24.538Z,22.40
2022-10-15T10:48:43.083Z,22.56
2022-10-15T10:50:44.628Z,22.68
2022-10-15T10:52:46.175Z,22.77
2022-10-15T10:54:53.148Z,22.87
2022-10-15T10:56:56.511Z,22.93
2022-10-15T10:59:20.719Z,23.01
2022-10-15T11:01:24.163Z,23.06
2022-10-15T11:03:38.624Z,23.12
2022-10-15T11:05:40.662Z,23.16
2022-10-15T11:08:10.300Z,23.17
2022-10-15T11:10:21.332Z,23.19
2022-10-15T11:12:34.015Z,23.21
2022-10-15T11:15:03.788Z,23.21
2022-10-15T11:17:08.503Z,23.23
2022-10-15T11:19:19.950Z,23.24
2022-10-15T11:22:14.332Z,23.23
2022-10-15T11:24:21.398Z,23.23
2022-10-15T11:27:10.905Z,23.23
2022-10-15T11:29:18.804Z,23.22
2022-10-15T11:31:49.077Z,23.23
2022-10-15T11:34:31.823Z,23.27
2022-10-15T11:36:43.921Z,23.30
2022-10-15T11:39:14.701Z,23.32
2022-10-15T11:41:32.402Z,23.36
2022-10-15T11:43:45.957Z,23.40
2022-10-15T11:45:58.975Z,23.43
2022-10-15T11:48:08.345Z,23.44
2022-10-15T11:50:24.916Z,23.45
2022-10-15T11:52:47.246Z,23.44
2022-10-15T11:55:07.821Z,23.42
2022-10-15T11:57:14.611Z,23.43
2022-10-15T11:59:36.102Z,23.38
2022-10-15T12:01:45.513Z,23.41
2022-10-15T12:04:13.086Z,23.42
2022-10-15T12:06:17.576Z,23.48
2022-10-15T12:08:21.370Z,23.52
2022-10-15T12:10:51.978Z,23.56
2022-10-15T12:13:31.238Z,23.60
2022-10-15T12:15:52.299Z,23.63
2022-10-15T12:18:18.262Z,23.64
2022-10-15T12:20:22.404Z,23.66
2022-10-15T12:22:56.831Z,23.67
2022-10-15T12:24:58.534Z,23.70
2022-10-15T12:27:19.285Z,23.75
2022-10-15T12:29:26.130Z,23.81
2022-10-15T12:31:46.256Z,23.85
2022-10-15T12:33:52.185Z,23.91
2022-10-15T12:35:57.078Z,23.94
2022-10-15T12:38:11.730Z,23.95
2022-10-15T12:40:22.543Z,23.98
2022-10-15T12:42:34.678Z,24.02
2022-10-15T12:44:36.968Z,24.07
2022-10-15T12:46:40.101Z,24.09
2022-10-15T12:48:44.537Z,24.11
2022-10-15T12:50:46.215Z,24.15
2022-10-15T12:52:55.094Z,24.17
2022-10-15T12:55:20.527Z,24.19
2022-10-15T12:57:31.268Z,24.20
2022-10-15T12:59:44.882Z,24.22
2022-10-15T13:01:46.400Z,24.25
2022-10-15T13:03:51.009Z,24.29
2022-10-15T13:05:55.278Z,24.34
2022-10-15T13:08:24.874Z,24.37
2022-10-15T13:10:34.170Z,24.42
2022-10-15T13:12:38.038Z,24.44
2022-10-15T13:14:48.416Z,24.44
2022-10-15T13:16:50.712Z,24.44
2022-10-15T13:18:55.634Z,24.42
2022-10-15T13:20:57.938Z,24.40
2022-10-15T13:23:30.216Z,24.36
2022-10-15T13:25:32.494Z,24.34
2022-10-15T13:27:37.891Z,24.35
2022-10-15T13:29:39.473Z,24.37
2022-10-15T13:31:44.932Z,24.39
2022-10-15T13:33:50.627Z,24.42
2022-10-15T13:35:52.462Z,24.44
2022-10-15T13:37:54.153Z,24.44
2022-10-15T13:39:57.023Z,24.46
2022-10-15T13:42:16.785Z,24.45
2022-10-15T13:44:23.357Z,24.44
2022-10-15T13:46:30.925Z,24.43
2022-10-15T13:48:32.987Z,24.42
2022-10-15T13:50:36.285Z,24.42
2022-10-15T13:52:42.733Z,24.38
2022-10-15T13:54:46.797Z,24.36
2022-10-15T13:56:54.195Z,24.33
2022-10-15T13:58:57.225Z,24.31
2022-10-15T14:01:21.099Z,24.27
2022-10-15T14:03:26.217Z,24.23
2022-10-15T14:05:27.804Z,24.20
2022-10-15T14:07:29.369Z,24.17
2022-10-15T14:09:34.253Z,24.15
2022-10-15T14:11:36.104Z,24.16
2022-10-15T14:13:45.019Z,24.14
2022-10-15T14:15:59.380Z,24.14
2022-10-15T14:18:01.104Z,24.16
2022-10-15T14:20:26.218Z,24.18
2022-10-15T14:22:29.298Z,24.18
2022-10-15T14:24:39.746Z,24.18
2022-10-15T14:26:41.530Z,24.18
2022-10-15T14:28:50.150Z,24.15
2022-10-15T14:30:52.405Z,24.16
2022-10-15T14:32:54.689Z,24.19
2022-10-15T14:34:57.767Z,24.20
2022-10-15T14:37:00.079Z,24.21
2022-10-15T14:39:27.504Z,24.22
2022-10-15T14:41:31.538Z,24.22
2022-10-15T14:43:35.514Z,24.23
2022-10-15T14:45:57.634Z,24.21
2022-10-15T14:48:03.228Z,24.19
2022-10-15T14:50:06.694Z,24.17
2022-10-15T14:52:15.067Z,24.14
2022-10-15T14:54:26.355Z,24.10
2022-10-15T14:56:33.252Z,24.07
2022-10-15T14:58:37.224Z,24.03
2022-10-15T15:00:42.669Z,24.01
2022-10-15T15:02:44.342Z,23.98
2022-10-15T15:05:03.784Z,23.94
2022-10-15T15:07:31.475Z,23.86
2022-10-15T15:09:32.926Z,23.85
2022-10-15T15:11:34.539Z,23.80
2022-10-15T15:13:44.853Z,23.75
2022-10-15T15:15:46.901Z,23.70
2022-10-15T15:17:49.199Z,23.69
2022-10-15T15:19:53.008Z,23.66
2022-10-15T15:21:54.689Z,23.62
2022-10-15T15:23:56.090Z,23.60
2022-10-15T15:25:57.653Z,23.57
2022-10-15T15:28:00.194Z,23.52
2022-10-15T15:30:01.637Z,23.48
2022-10-15T15:32:03.286Z,23.47
2022-10-15T15:34:04.805Z,23.44
2022-10-15T15:36:18.930Z,23.38
2022-10-15T15:38:30.666Z,23.35
2022-10-15T15:40:32.544Z,23.31
2022-10-15T15:42:34.054Z,23.28
2022-10-15T15:44:35.512Z,23.25
2022-10-15T15:46:36.997Z,23.20
2022-10-15T15:48:38.742Z,23.17
2022-10-15T15:50:40.278Z,23.12
2022-10-15T15:52:43.594Z,23.12
2022-10-15T15:54:48.663Z,23.07
2022-10-15T15:56:50.113Z,23.03
2022-10-15T15:58:52.508Z,23.00
2022-10-15T16:00:53.984Z,22.96
2022-10-15T16:02:57.909Z,22.91
2022-10-15T16:05:01.656Z,22.88
2022-10-15T16:07:03.317Z,22.85
2022-10-15T16:09:05.715Z,22.82
2022-10-15T16:11:07.368Z,22.77
2022-10-15T16:13:08.882Z,22.73
2022-10-15T16:15:13.583Z,22.71
2022-10-15T16:17:16.751Z,22.68
2022-10-15T16:19:18.329Z,22.65
2022-10-15T16:21:24.231Z,22.61
2022-10-15T16:23:26.042Z,22.57
2022-10-15T16:25:29.954Z,22.55
2022-10-15T16:27:33.896Z,22.50
2022-10-15T16:29:35.646Z,22.49
2022-10-15T16:31:37.298Z,22.45
2022-10-15T16:33:38.868Z,22.43
2022-10-15T16:35:40.748Z,22.37
2022-10-15T16:37:42.524Z,22.33
2022-10-15T16:39:44.196Z,22.32
2022-10-15T16:41:45.871Z,22.31
2022-10-15T16:43:48.275Z,22.30
2022-10-15T16:45:59.631Z,22.29
2022-10-15T16:48:01.285Z,22.28
2022-10-15T16:50:04.310Z,22.30
2022-10-15T16:52:05.875Z,22.31
2022-10-15T16:54:07.675Z,22.32
2022-10-15T16:56:14.189Z,22.31
2022-10-15T16:58:15.842Z,22.31
2022-10-15T17:00:17.470Z,22.32
2022-10-15T17:02:19.090Z,22.32
2022-10-15T17:04:20.680Z,22.33
2022-10-15T17:06:25.758Z,22.32
2022-10-15T17:08:35.656Z,22.32
2022-10-15T17:10:42.160Z,22.31
2022-10-15T17:12:43.697Z,22.28
2022-10-15T17:14:50.866Z,22.28
2022-10-15T17:16:52.917Z,22.26
2022-10-15T17:18:56.404Z,22.25
2022-10-15T17:20:58.021Z,22.22
2022-10-15T17:22:59.748Z,22.23
2022-10-15T17:25:01.300Z,22.19
2022-10-15T17:27:03.587Z,22.18
2022-10-15T17:29:06.988Z,22.16
2022-10-15T17:31:11.905Z,22.13
2022-10-15T17:33:16.708Z,22.11
2022-10-15T17:35:18.470Z,22.08
2022-10-15T17:37:20.030Z,22.05
2022-10-15T17:39:24.783Z,22.03
2022-10-15T17:41:28.726Z,22.01
2022-10-15T17:43:30.322Z,21.97
2022-10-15T17:45:31.869Z,21.95
2022-10-15T17:47:33.523Z,21.93
2022-10-15T17:49:35.115Z,21.91
2022-10-15T17:51:37.090Z,21.86
2022-10-15T17:53:42.619Z,21.84
2022-10-15T17:55:44.190Z,21.82
2022-10-15T17:57:45.866Z,21.80
2022-10-15T17:59:50.370Z,21.77
2022-10-15T18:01:58.364Z,21.75
2022-10-15T18:04:00.698Z,21.72
2022-10-15T18:06:15.126Z,21.69
2022-10-15T18:08:18.093Z,21.67
2022-10-15T18:10:19.655Z,21.65
2022-10-15T18:12:21.192Z,21.64
2022-10-15T18:14:22.996Z,21.59
2022-10-15T18:16:24.644Z,21.55
2022-10-15T18:18:26.957Z,21.53
2022-10-15T18:20:28.628Z,21.52
2022-10-15T18:22:30.352Z,21.48
2022-10-15T18:24:33.092Z,21.47
2022-10-15T18:26:39.231Z,21.46
2022-10-15T18:28:45.338Z,21.45
2022-10-15T18:30:46.930Z,21.42
2022-10-15T18:32:52.218Z,21.41
2022-10-15T18:34:56.067Z,21.40
2022-10-15T18:36:59.831Z,21.38
2022-10-15T18:39:01.308Z,21.37
2022-10-15T18:41:03.314Z,21.35
2022-10-15T18:43:05.480Z,21.33
2022-10-15T18:45:07.495Z,21.33
2022-10-15T18:47:09.076Z,21.31
2022-10-15T18:49:19.142Z,21.29
2022-10-15T18:51:21.059Z,21.28
2022-10-15T18:53:23.672Z,21.26
2022-10-15T18:55:25.471Z,21.25
2022-10-15T18:57:27.035Z,21.21
2022-10-15T18:59:28.788Z,21.20
2022-10-15T19:01:41.963Z,21.19
2022-10-15T19:03:45.121Z,21.18
2022-10-15T19:05:48.404Z,21.16
2022-10-15T19:07:55.361Z,21.15
2022-10-15T19:09:57.004Z,21.13
2022-10-15T19:12:01.309Z,21.13
2022-10-15T19:14:03.982Z,21.08
2022-10-15T19:16:06.148Z,21.08
2022-10-15T19:18:11.130Z,21.06
2022-10-15T19:20:12.990Z,21.07
2022-10-15T19:22:14.739Z,21.06
2022-10-15T19:24:17.890Z,21.05
2022-10-15T19:26:19.637Z,21.03
2022-10-15T19:28:21.317Z,21.01
2022-10-15T19:30:23.545Z,20.99
2022-10-15T19:32:25.112Z,20.98
2022-10-15T19:34:27.385Z,20.96
2022-10-15T19:36:32.155Z,20.97
2022-10-15T19:38:33.786Z,20.96
2022-10-15T19:40:39.249Z,20.95
2022-10-15T19:42:40.929Z,20.92
2022-10-15T19:44:42.790Z,20.93
2022-10-15T19:46:46.569Z,20.90
2022-10-15T19:48:48.560Z,20.87
2022-10-15T19:50:50.169Z,20.86
2022-10-15T19:52:52.003Z,20.84
2022-10-15T19:54:53.705Z,20.86
2022-10-15T19:56:55.357Z,20.85
2022-10-15T19:58:59.304Z,20.85
2022-10-15T20:01:01.024Z,20.82
2022-10-15T20:03:02.686Z,20.82
2022-10-15T20:05:04.744Z,20.83
2022-10-15T20:07:06.242Z,20.83
2022-10-15T20:09:08.751Z,20.82
2022-10-15T20:11:10.969Z,20.82
2022-10-15T20:13:14.919Z,20.80
2022-10-15T20:15:16.475Z,20.80
2022-10-15T20:17:18.061Z,20.80
2022-10-15T20:19:21.588Z,20.79
2022-10-15T20:21:23.285Z,20.79
2022-10-15T20:23:28.596Z,20.78
2022-10-15T20:25:30.354Z,20.78
2022-10-15T20:27:32.262Z,20.77
2022-10-15T20:29:34.066Z,20.76
2022-10-15T20:31:36.004Z,20.75
2022-10-15T20:33:38.521Z,20.75
2022-10-15T20:35:41.429Z,20.75
2022-10-15T20:37:43.074Z,20.74
2022-10-15T20:39:45.022Z,20.73
2022-10-15T20:41:46.927Z,20.72
2022-10-15T20:44:00.650Z,20.72
2022-10-15T20:46:02.846Z,20.71
2022-10-15T20:48:07.235Z,20.70
2022-10-15T20:50:16.163Z,20.69
2022-10-15T20:52:17.904Z,20.69
2022-10-15T20:54:20.336Z,20.68
2022-10-15T20:56:23.491Z,20.68
2022-10-15T20:58:25.968Z,20.66
2022-10-15T21:00:27.869Z,20.64
2022-10-15T21:02:31.482Z,20.62
2022-10-15T21:04:33.519Z,20.62
2022-10-15T21:06:39.029Z,20.62
2022-10-15T21:08:40.625Z,20.61
2022-10-15T21:10:42.204Z,20.59
2022-10-15T21:12:43.917Z,20.58
2022-10-15T21:14:48.687Z,20.56
2022-10-15T21:16:50.338Z,20.57
2022-10-15T21:18:51.875Z,20.56
2022-10-15T21:21:06.389Z,20.55
2022-10-15T21:23:08.103Z,20.55
2022-10-15T21:25:09.974Z,20.54
2022-10-15T21:27:11.781Z,20.53
2022-10-15T21:29:19.457Z,20.54
2022-10-15T21:31:21.263Z,20.52
2022-10-15T21:33:23.269Z,20.51
2022-10-15T21:35:25.075Z,20.49
2022-10-15T21:37:27.057Z,20.49
2022-10-15T21:39:29.234Z,20.47
2022-10-15T21:41:35.277Z,20.46
2022-10-15T21:43:37.232Z,20.46
2022-10-15T21:45:39.024Z,20.43
2022-10-15T21:47:41.037Z,20.41
2022-10-15T21:49:42.754Z,20.41
2022-10-15T21:51:44.383Z,20.38
2022-10-15T21:53:51.205Z,20.36
2022-10-15T21:55:54.309Z,20.35
2022-10-15T21:57:55.952Z,20.34
2022-10-15T22:00:00.506Z,20.32
2022-10-15T22:02:05.174Z,20.26
2022-10-15T22:04:08.593Z,20.28
2022-10-15T22:06:11.427Z,20.25
2022-10-15T22:08:13.117Z,20.23
2022-10-15T22:10:14.862Z,20.22
2022-10-15T22:12:18.979Z,20.22
2022-10-15T22:14:22.690Z,20.20
2022-10-15T22:16:26.204Z,20.19
2022-10-15T22:18:30.769Z,20.16
2022-10-15T22:20:32.358Z,20.15
2022-10-15T22:22:33.968Z,20.14
2022-10-15T22:24:35.580Z,20.12
2022-10-15T22:26:40.587Z,20.12
2022-10-15T22:28:43.220Z,20.09
2022-10-15T22:30:45.006Z,20.08
2022-10-15T22:32:46.769Z,20.07
2022-10-15T22:34:48.369Z,20.06
2022-10-15T22:36:50.411Z,20.05
2022-10-15T22:38:57.891Z,20.03
2022-10-15T22:40:59.651Z,20.02
2022-10-15T22:43:02.892Z,20.00
2022-10-15T22:45:04.999Z,19.99
2022-10-15T22:47:06.707Z,20.00
2022-10-15T22:49:09.825Z,19.99
2022-10-15T22:51:13.278Z,19.96
2022-10-15T22:53:14.799Z,19.95
2022-10-15T22:55:16.475Z,19.94
2022-10-15T22:57:18.066Z,19.92
2022-10-15T22:59:20.120Z,19.91
2022-10-15T23:01:24.886Z,19.90
2022-10-15T23:03:26.558Z,19.90
2022-10-15T23:05:28.386Z,19.90
2022-10-15T23:07:30.024Z,19.89
2022-10-15T23:09:31.639Z,19.87
2022-10-15T23:11:35.719Z,19.86
2022-10-15T23:13:39.203Z,19.86
2022-10-15T23:15:41.369Z,19.85
2022-10-15T23:17:43.201Z,19.86
2022-10-15T23:19:44.605Z,19.85
2022-10-15T23:21:50.719Z,19.85
2022-10-15T23:23:52.450Z,19.80
2022-10-15T23:25:54.042Z,19.81
2022-10-15T23:27:55.799Z,19.83
2022-10-15T23:30:07.638Z,19.80
2022-10-15T23:34:39.035Z,19.80
2022-10-15T23:36:41.570Z,19.79
2022-10-15T23:38:46.897Z,19.79
2022-10-15T23:40:49.449Z,19.79
2022-10-15T23:42:51.261Z,19.78
2022-10-15T23:44:53.063Z,19.77
2022-10-15T23:46:54.969Z,19.78
2022-10-15T23:48:56.569Z,19.78
2022-10-15T23:51:02.423Z,19.77
2022-10-15T23:53:05.544Z,19.78
2022-10-15T23:55:07.513Z,19.77
2022-10-15T23:57:09.467Z,19.76
2022-10-15T23:59:11.109Z,19.76
